sensor_id;sensor_type;location;lat;lon;timestamp;temperature;humidity
59857;DHT22;45733;52.668;6.860;2024-01-10T00:01:35;-1.20;1.00
59857;DHT22;45733;52.668;6.860;2024-01-10T00:04:00;-1.20;1.00
59857;DHT22;45733;52.668;6.860;2024-01-10T00:06:26;-1.20;99.90
59857;DHT22;45733;52.668;6.860;2024-01-10T00:08:52;-1.10;99.90
59857;DHT22;45733;52.668;6.860;2024-01-10T00:11:17;-1.30;99.90
59857;DHT22;45733;52.668;6.860;2024-01-10T00:13:43;-1.30;99.90
59857;DHT22;45733;52.668;6.860;2024-01-10T00:16:12;-1.20;99.90
59857;DHT22;45733;52.668;6.860;2024-01-10T00:18:38;-1.30;99.90
59857;DHT22;45733;52.668;6.860;2024-01-10T00:21:06;-1.20;99.90
59857;DHT22;45733;52.668;6.860;2024-01-10T00:23:31;-1.20;99.90
59857;DHT22;45733;52.668;6.860;2024-01-10T00:25:57;-1.20;99.90
59857;DHT22;45733;52.668;6.860;2024-01-10T00:28:23;-1.30;99.90
59857;DHT22;45733;52.668;6.860;2024-01-10T00:30:49;-1.30;99.90
59857;DHT22;45733;52.668;6.860;2024-01-10T00:33:15;-1.30;99.90
59857;DHT22;45733;52.668;6.860;2024-01-10T00:35:40;-1.30;99.90
59857;DHT22;45733;52.668;6.860;2024-01-10T00:38:06;-1.40;99.90
59857;DHT22;45733;52.668;6.860;2024-01-10T00:40:32;-1.40;99.90
59857;DHT22;45733;52.668;6.860;2024-01-10T00:42:57;-1.50;1.00
59857;DHT22;45733;52.668;6.860;2024-01-10T00:45:24;-1.50;1.00
59857;DHT22;45733;52.668;6.860;2024-01-10T00:47:50;-1.50;1.00
59857;DHT22;45733;52.668;6.860;2024-01-10T00:50:16;-1.50;1.00
59857;DHT22;45733;52.668;6.860;2024-01-10T00:52:45;-1.50;1.00
59857;DHT22;45733;52.668;6.860;2024-01-10T00:55:11;-1.60;1.00
59857;DHT22;45733;52.668;6.860;2024-01-10T00:57:38;-1.70;1.00
59857;DHT22;45733;52.668;6.860;2024-01-10T01:00:13;-1.60;1.00
59857;DHT22;45733;52.668;6.860;2024-01-10T01:02:38;-1.50;1.00
59857;DHT22;45733;52.668;6.860;2024-01-10T01:05:07;-1.60;1.00
59857;DHT22;45733;52.668;6.860;2024-01-10T01:07:33;-1.50;1.00
59857;DHT22;45733;52.668;6.860;2024-01-10T01:09:59;-1.60;1.00
59857;DHT22;45733;52.668;6.860;2024-01-10T01:12:25;-1.60;1.00
59857;DHT22;45733;52.668;6.860;2024-01-10T01:14:51;-1.60;1.00
59857;DHT22;45733;52.668;6.860;2024-01-10T01:17:17;-1.70;1.00
59857;DHT22;45733;52.668;6.860;2024-01-10T01:19:42;-1.70;1.00
59857;DHT22;45733;52.668;6.860;2024-01-10T01:22:08;-1.80;1.00
59857;DHT22;45733;52.668;6.860;2024-01-10T01:24:34;-1.70;1.00
59857;DHT22;45733;52.668;6.860;2024-01-10T01:27:00;-1.60;99.90
59857;DHT22;45733;52.668;6.860;2024-01-10T01:29:25;-1.60;99.90
59857;DHT22;45733;52.668;6.860;2024-01-10T01:31:51;-1.70;99.90
59857;DHT22;45733;52.668;6.860;2024-01-10T01:34:18;-1.70;99.90
59857;DHT22;45733;52.668;6.860;2024-01-10T01:36:43;-1.70;99.90
59857;DHT22;45733;52.668;6.860;2024-01-10T01:39:09;-1.70;99.90
59857;DHT22;45733;52.668;6.860;2024-01-10T01:41:35;-1.70;1.00
59857;DHT22;45733;52.668;6.860;2024-01-10T01:44:00;-1.70;99.90
59857;DHT22;45733;52.668;6.860;2024-01-10T01:46:26;-1.80;99.90
59857;DHT22;45733;52.668;6.860;2024-01-10T01:48:53;-1.80;99.90
59857;DHT22;45733;52.668;6.860;2024-01-10T01:51:20;-1.90;99.90
59857;DHT22;45733;52.668;6.860;2024-01-10T01:53:48;-1.80;1.00
59857;DHT22;45733;52.668;6.860;2024-01-10T01:56:14;-1.90;1.00
59857;DHT22;45733;52.668;6.860;2024-01-10T01:58:43;-1.90;1.00
59857;DHT22;45733;52.668;6.860;2024-01-10T02:01:11;-1.90;1.00
59857;DHT22;45733;52.668;6.860;2024-01-10T02:03:38;-1.90;1.00
59857;DHT22;45733;52.668;6.860;2024-01-10T02:06:04;-1.90;1.00
59857;DHT22;45733;52.668;6.860;2024-01-10T02:08:33;-2.00;1.00
59857;DHT22;45733;52.668;6.860;2024-01-10T02:11:00;-2.10;1.00
59857;DHT22;45733;52.668;6.860;2024-01-10T02:13:27;-2.10;1.00
59857;DHT22;45733;52.668;6.860;2024-01-10T02:15:53;-2.10;1.00
59857;DHT22;45733;52.668;6.860;2024-01-10T02:18:19;-2.10;27.10
59857;DHT22;45733;52.668;6.860;2024-01-10T02:20:45;-2.10;12.20
59857;DHT22;45733;52.668;6.860;2024-01-10T02:23:11;-2.10;8.80
59857;DHT22;45733;52.668;6.860;2024-01-10T02:25:38;-2.10;32.90
59857;DHT22;45733;52.668;6.860;2024-01-10T02:28:04;-2.10;23.40
59857;DHT22;45733;52.668;6.860;2024-01-10T02:30:30;-2.10;27.00
59857;DHT22;45733;52.668;6.860;2024-01-10T02:32:56;-2.20;1.00
59857;DHT22;45733;52.668;6.860;2024-01-10T02:35:21;-2.20;1.00
59857;DHT22;45733;52.668;6.860;2024-01-10T02:37:47;-2.20;1.00
59857;DHT22;45733;52.668;6.860;2024-01-10T02:40:16;-2.10;1.00
59857;DHT22;45733;52.668;6.860;2024-01-10T02:42:42;-2.10;1.00
59857;DHT22;45733;52.668;6.860;2024-01-10T02:45:08;-2.10;1.00
59857;DHT22;45733;52.668;6.860;2024-01-10T02:47:34;-2.10;1.00
59857;DHT22;45733;52.668;6.860;2024-01-10T02:50:00;-2.10;1.00
59857;DHT22;45733;52.668;6.860;2024-01-10T02:52:27;-2.10;1.00
59857;DHT22;45733;52.668;6.860;2024-01-10T02:54:52;-2.10;1.00
59857;DHT22;45733;52.668;6.860;2024-01-10T02:57:18;-2.10;1.00
59857;DHT22;45733;52.668;6.860;2024-01-10T02:59:44;-2.10;1.00
59857;DHT22;45733;52.668;6.860;2024-01-10T03:02:10;-2.10;1.00
59857;DHT22;45733;52.668;6.860;2024-01-10T03:04:35;-2.10;1.00
59857;DHT22;45733;52.668;6.860;2024-01-10T03:07:01;-2.10;1.00
59857;DHT22;45733;52.668;6.860;2024-01-10T03:09:27;-2.00;1.00
59857;DHT22;45733;52.668;6.860;2024-01-10T03:11:52;-2.10;1.00
59857;DHT22;45733;52.668;6.860;2024-01-10T03:14:18;-2.10;1.00
59857;DHT22;45733;52.668;6.860;2024-01-10T03:16:44;-2.10;1.00
59857;DHT22;45733;52.668;6.860;2024-01-10T03:19:09;-2.10;1.00
59857;DHT22;45733;52.668;6.860;2024-01-10T03:21:35;-2.10;1.00
59857;DHT22;45733;52.668;6.860;2024-01-10T03:24:01;-2.10;1.00
59857;DHT22;45733;52.668;6.860;2024-01-10T03:26:28;-2.10;1.00
59857;DHT22;45733;52.668;6.860;2024-01-10T03:28:56;-2.00;1.00
59857;DHT22;45733;52.668;6.860;2024-01-10T03:31:22;-2.00;1.00
59857;DHT22;45733;52.668;6.860;2024-01-10T03:33:47;-2.10;1.00
59857;DHT22;45733;52.668;6.860;2024-01-10T03:36:16;-2.10;99.90
59857;DHT22;45733;52.668;6.860;2024-01-10T03:38:43;-2.10;1.00
59857;DHT22;45733;52.668;6.860;2024-01-10T03:41:16;-2.00;99.90
59857;DHT22;45733;52.668;6.860;2024-01-10T03:43:42;-2.00;99.90
59857;DHT22;45733;52.668;6.860;2024-01-10T03:46:08;-2.00;99.90
59857;DHT22;45733;52.668;6.860;2024-01-10T03:48:34;-2.00;99.90
59857;DHT22;45733;52.668;6.860;2024-01-10T03:51:00;-2.00;99.90
59857;DHT22;45733;52.668;6.860;2024-01-10T03:53:26;-2.00;99.90
59857;DHT22;45733;52.668;6.860;2024-01-10T03:55:52;-2.00;99.90
59857;DHT22;45733;52.668;6.860;2024-01-10T03:58:17;-2.00;99.90
59857;DHT22;45733;52.668;6.860;2024-01-10T04:00:43;-2.00;99.90
59857;DHT22;45733;52.668;6.860;2024-01-10T04:03:09;-2.00;99.90
59857;DHT22;45733;52.668;6.860;2024-01-10T04:05:34;-1.90;99.90
59857;DHT22;45733;52.668;6.860;2024-01-10T04:08:00;-2.00;99.90
59857;DHT22;45733;52.668;6.860;2024-01-10T04:10:26;-2.00;99.90
59857;DHT22;45733;52.668;6.860;2024-01-10T04:12:51;-2.00;99.90
59857;DHT22;45733;52.668;6.860;2024-01-10T04:15:17;-1.80;99.90
59857;DHT22;45733;52.668;6.860;2024-01-10T04:17:45;-2.00;99.90
59857;DHT22;45733;52.668;6.860;2024-01-10T04:20:11;-1.90;99.90
59857;DHT22;45733;52.668;6.860;2024-01-10T04:22:37;-2.00;99.90
59857;DHT22;45733;52.668;6.860;2024-01-10T04:25:06;-1.90;99.90
59857;DHT22;45733;52.668;6.860;2024-01-10T04:27:32;-1.90;99.90
59857;DHT22;45733;52.668;6.860;2024-01-10T04:29:58;-1.80;99.90
59857;DHT22;45733;52.668;6.860;2024-01-10T04:32:24;-1.80;99.90
59857;DHT22;45733;52.668;6.860;2024-01-10T04:34:49;-1.80;99.90
59857;DHT22;45733;52.668;6.860;2024-01-10T04:37:15;-1.90;99.90
59857;DHT22;45733;52.668;6.860;2024-01-10T04:39:41;-1.90;99.90
59857;DHT22;45733;52.668;6.860;2024-01-10T04:42:09;-1.80;99.90
59857;DHT22;45733;52.668;6.860;2024-01-10T04:44:36;-1.80;99.90
59857;DHT22;45733;52.668;6.860;2024-01-10T04:47:02;-1.90;99.90
59857;DHT22;45733;52.668;6.860;2024-01-10T04:49:27;-1.90;99.90
59857;DHT22;45733;52.668;6.860;2024-01-10T04:51:53;-1.90;99.90
59857;DHT22;45733;52.668;6.860;2024-01-10T04:54:19;-2.00;99.90
59857;DHT22;45733;52.668;6.860;2024-01-10T04:56:44;-2.00;99.90
59857;DHT22;45733;52.668;6.860;2024-01-10T04:59:10;-2.00;99.90
59857;DHT22;45733;52.668;6.860;2024-01-10T05:01:36;-1.90;99.90
59857;DHT22;45733;52.668;6.860;2024-01-10T05:04:03;-2.00;99.90
59857;DHT22;45733;52.668;6.860;2024-01-10T05:06:28;-1.90;99.90
59857;DHT22;45733;52.668;6.860;2024-01-10T05:08:54;-1.90;99.90
59857;DHT22;45733;52.668;6.860;2024-01-10T05:11:24;-2.00;99.90
59857;DHT22;45733;52.668;6.860;2024-01-10T05:13:51;-2.00;99.90
59857;DHT22;45733;52.668;6.860;2024-01-10T05:16:17;-2.00;99.90
59857;DHT22;45733;52.668;6.860;2024-01-10T05:18:42;-1.90;99.90
59857;DHT22;45733;52.668;6.860;2024-01-10T05:21:09;-2.00;99.90
59857;DHT22;45733;52.668;6.860;2024-01-10T05:23:34;-2.00;99.90
59857;DHT22;45733;52.668;6.860;2024-01-10T05:26:01;-2.00;99.90
59857;DHT22;45733;52.668;6.860;2024-01-10T05:28:26;-2.00;99.90
59857;DHT22;45733;52.668;6.860;2024-01-10T05:30:52;-2.00;99.90
59857;DHT22;45733;52.668;6.860;2024-01-10T05:33:19;-2.00;99.90
59857;DHT22;45733;52.668;6.860;2024-01-10T05:35:45;-2.00;99.90
59857;DHT22;45733;52.668;6.860;2024-01-10T05:38:11;-2.00;99.90
59857;DHT22;45733;52.668;6.860;2024-01-10T05:40:37;-2.00;99.90
59857;DHT22;45733;52.668;6.860;2024-01-10T05:43:02;-2.00;99.90
59857;DHT22;45733;52.668;6.860;2024-01-10T05:45:28;-2.10;99.90
59857;DHT22;45733;52.668;6.860;2024-01-10T05:47:54;-2.10;99.90
59857;DHT22;45733;52.668;6.860;2024-01-10T05:50:20;-2.10;1.00
59857;DHT22;45733;52.668;6.860;2024-01-10T05:52:47;-2.00;99.90
59857;DHT22;45733;52.668;6.860;2024-01-10T05:55:13;-2.00;99.90
59857;DHT22;45733;52.668;6.860;2024-01-10T05:57:38;-2.00;99.90
59857;DHT22;45733;52.668;6.860;2024-01-10T06:00:05;-2.00;99.90
59857;DHT22;45733;52.668;6.860;2024-01-10T06:02:39;-2.00;99.90
59857;DHT22;45733;52.668;6.860;2024-01-10T06:05:13;-1.90;99.90
59857;DHT22;45733;52.668;6.860;2024-01-10T06:07:39;-2.00;99.90
59857;DHT22;45733;52.668;6.860;2024-01-10T06:10:08;-1.90;99.90
59857;DHT22;45733;52.668;6.860;2024-01-10T06:12:35;-1.90;99.90
59857;DHT22;45733;52.668;6.860;2024-01-10T06:15:01;-2.00;99.90
59857;DHT22;45733;52.668;6.860;2024-01-10T06:17:26;-2.10;99.90
59857;DHT22;45733;52.668;6.860;2024-01-10T06:19:52;-2.10;99.90
59857;DHT22;45733;52.668;6.860;2024-01-10T06:22:18;-2.00;99.90
59857;DHT22;45733;52.668;6.860;2024-01-10T06:24:44;-2.00;99.90
59857;DHT22;45733;52.668;6.860;2024-01-10T06:27:10;-2.10;99.90
59857;DHT22;45733;52.668;6.860;2024-01-10T06:29:36;-2.00;99.90
59857;DHT22;45733;52.668;6.860;2024-01-10T06:32:05;-2.00;99.90
59857;DHT22;45733;52.668;6.860;2024-01-10T06:34:32;-2.10;99.90
59857;DHT22;45733;52.668;6.860;2024-01-10T06:36:58;-2.10;99.90
59857;DHT22;45733;52.668;6.860;2024-01-10T06:39:24;-2.10;99.90
59857;DHT22;45733;52.668;6.860;2024-01-10T06:41:50;-2.10;99.90
59857;DHT22;45733;52.668;6.860;2024-01-10T06:44:16;-2.10;99.90
59857;DHT22;45733;52.668;6.860;2024-01-10T06:46:43;-2.10;99.90
59857;DHT22;45733;52.668;6.860;2024-01-10T06:49:09;-2.20;99.90
59857;DHT22;45733;52.668;6.860;2024-01-10T06:51:35;-2.30;99.90
59857;DHT22;45733;52.668;6.860;2024-01-10T06:54:01;-2.30;99.90
59857;DHT22;45733;52.668;6.860;2024-01-10T06:56:32;-2.20;99.90
59857;DHT22;45733;52.668;6.860;2024-01-10T06:58:59;-2.20;99.90
59857;DHT22;45733;52.668;6.860;2024-01-10T07:01:25;-2.30;99.90
59857;DHT22;45733;52.668;6.860;2024-01-10T07:03:52;-2.40;99.90
59857;DHT22;45733;52.668;6.860;2024-01-10T07:06:18;-2.20;99.90
59857;DHT22;45733;52.668;6.860;2024-01-10T07:08:44;-2.30;99.90
59857;DHT22;45733;52.668;6.860;2024-01-10T07:11:12;-2.40;99.90
59857;DHT22;45733;52.668;6.860;2024-01-10T07:13:38;-2.30;99.90
59857;DHT22;45733;52.668;6.860;2024-01-10T07:16:04;-2.30;99.90
59857;DHT22;45733;52.668;6.860;2024-01-10T07:18:30;-2.30;99.90
59857;DHT22;45733;52.668;6.860;2024-01-10T07:20:58;-2.30;99.90
59857;DHT22;45733;52.668;6.860;2024-01-10T07:23:24;-2.20;99.90
59857;DHT22;45733;52.668;6.860;2024-01-10T07:25:50;-2.30;99.90
59857;DHT22;45733;52.668;6.860;2024-01-10T07:28:19;-2.40;99.90
59857;DHT22;45733;52.668;6.860;2024-01-10T07:30:45;-2.30;99.90
59857;DHT22;45733;52.668;6.860;2024-01-10T07:33:12;-2.30;99.90
59857;DHT22;45733;52.668;6.860;2024-01-10T07:35:38;-2.30;99.90
59857;DHT22;45733;52.668;6.860;2024-01-10T07:38:04;-2.30;99.90
59857;DHT22;45733;52.668;6.860;2024-01-10T07:40:33;-2.30;99.90
59857;DHT22;45733;52.668;6.860;2024-01-10T07:42:58;-2.20;99.90
59857;DHT22;45733;52.668;6.860;2024-01-10T07:45:25;-2.20;99.90
59857;DHT22;45733;52.668;6.860;2024-01-10T07:47:50;-2.20;99.90
59857;DHT22;45733;52.668;6.860;2024-01-10T07:50:16;-2.20;99.90
59857;DHT22;45733;52.668;6.860;2024-01-10T07:52:42;-2.00;99.90
59857;DHT22;45733;52.668;6.860;2024-01-10T07:55:09;-2.00;99.90
59857;DHT22;45733;52.668;6.860;2024-01-10T07:57:35;-2.00;99.90
59857;DHT22;45733;52.668;6.860;2024-01-10T08:00:06;-2.00;99.90
59857;DHT22;45733;52.668;6.860;2024-01-10T08:02:38;-2.00;99.90
59857;DHT22;45733;52.668;6.860;2024-01-10T08:05:05;-1.80;99.90
59857;DHT22;45733;52.668;6.860;2024-01-10T08:07:35;-1.90;99.90
59857;DHT22;45733;52.668;6.860;2024-01-10T08:10:07;-1.80;99.90
59857;DHT22;45733;52.668;6.860;2024-01-10T08:12:37;-1.80;99.90
59857;DHT22;45733;52.668;6.860;2024-01-10T08:15:04;-1.80;99.90
59857;DHT22;45733;52.668;6.860;2024-01-10T08:17:32;-1.60;99.90
59857;DHT22;45733;52.668;6.860;2024-01-10T08:19:58;-1.60;99.90
59857;DHT22;45733;52.668;6.860;2024-01-10T08:22:24;-1.60;99.90
59857;DHT22;45733;52.668;6.860;2024-01-10T08:24:50;-1.40;99.90
59857;DHT22;45733;52.668;6.860;2024-01-10T08:27:15;-1.40;99.90
59857;DHT22;45733;52.668;6.860;2024-01-10T08:29:42;-1.30;99.90
59857;DHT22;45733;52.668;6.860;2024-01-10T08:32:08;-1.30;99.90
59857;DHT22;45733;52.668;6.860;2024-01-10T08:34:33;-1.20;99.90
59857;DHT22;45733;52.668;6.860;2024-01-10T08:36:59;-1.10;99.90
59857;DHT22;45733;52.668;6.860;2024-01-10T08:39:25;-1.10;99.90
59857;DHT22;45733;52.668;6.860;2024-01-10T08:41:53;-1.10;99.90
59857;DHT22;45733;52.668;6.860;2024-01-10T08:44:19;-0.90;99.90
59857;DHT22;45733;52.668;6.860;2024-01-10T08:46:45;-1.00;99.90
59857;DHT22;45733;52.668;6.860;2024-01-10T08:49:11;-0.80;99.90
59857;DHT22;45733;52.668;6.860;2024-01-10T08:51:37;-0.90;99.90
59857;DHT22;45733;52.668;6.860;2024-01-10T08:54:02;-0.80;99.90
59857;DHT22;45733;52.668;6.860;2024-01-10T08:56:29;-0.70;99.90
59857;DHT22;45733;52.668;6.860;2024-01-10T08:58:54;-0.60;99.90
59857;DHT22;45733;52.668;6.860;2024-01-10T09:01:20;-0.60;84.60
59857;DHT22;45733;52.668;6.860;2024-01-10T09:03:46;-0.60;88.80
59857;DHT22;45733;52.668;6.860;2024-01-10T09:06:12;-0.50;87.50
59857;DHT22;45733;52.668;6.860;2024-01-10T09:08:38;-0.30;90.70
59857;DHT22;45733;52.668;6.860;2024-01-10T09:11:05;-0.40;70.80
59857;DHT22;45733;52.668;6.860;2024-01-10T09:13:31;-0.30;66.50
59857;DHT22;45733;52.668;6.860;2024-01-10T09:15:57;-0.20;73.10
59857;DHT22;45733;52.668;6.860;2024-01-10T09:18:22;-0.10;89.20
59857;DHT22;45733;52.668;6.860;2024-01-10T09:20:48;-0.10;50.60
59857;DHT22;45733;52.668;6.860;2024-01-10T09:23:14;0.00;50.50
59857;DHT22;45733;52.668;6.860;2024-01-10T09:25:40;0.10;64.40
59857;DHT22;45733;52.668;6.860;2024-01-10T09:28:05;0.10;43.20
59857;DHT22;45733;52.668;6.860;2024-01-10T09:30:31;0.10;33.00
59857;DHT22;45733;52.668;6.860;2024-01-10T09:32:57;0.30;41.20
59857;DHT22;45733;52.668;6.860;2024-01-10T09:35:23;0.30;34.50
59857;DHT22;45733;52.668;6.860;2024-01-10T09:37:48;0.30;34.20
59857;DHT22;45733;52.668;6.860;2024-01-10T09:40:15;0.30;25.80
59857;DHT22;45733;52.668;6.860;2024-01-10T09:42:44;0.40;17.90
59857;DHT22;45733;52.668;6.860;2024-01-10T09:45:10;0.60;17.50
59857;DHT22;45733;52.668;6.860;2024-01-10T09:47:39;0.60;9.00
59857;DHT22;45733;52.668;6.860;2024-01-10T09:50:06;0.70;11.20
59857;DHT22;45733;52.668;6.860;2024-01-10T09:52:48;0.60;1.00
59857;DHT22;45733;52.668;6.860;2024-01-10T09:55:16;0.70;1.00
59857;DHT22;45733;52.668;6.860;2024-01-10T09:57:42;0.80;1.00
59857;DHT22;45733;52.668;6.860;2024-01-10T10:00:12;0.90;1.00
59857;DHT22;45733;52.668;6.860;2024-01-10T10:02:38;0.90;1.00
59857;DHT22;45733;52.668;6.860;2024-01-10T10:05:08;0.90;1.00
59857;DHT22;45733;52.668;6.860;2024-01-10T10:07:47;1.00;1.00
59857;DHT22;45733;52.668;6.860;2024-01-10T10:10:13;1.30;1.00
59857;DHT22;45733;52.668;6.860;2024-01-10T10:12:51;1.20;1.00
59857;DHT22;45733;52.668;6.860;2024-01-10T10:15:22;1.50;1.00
59857;DHT22;45733;52.668;6.860;2024-01-10T10:17:49;1.30;1.00
59857;DHT22;45733;52.668;6.860;2024-01-10T10:20:25;1.40;1.00
59857;DHT22;45733;52.668;6.860;2024-01-10T10:23:04;1.50;1.00
59857;DHT22;45733;52.668;6.860;2024-01-10T10:25:34;1.40;1.00
59857;DHT22;45733;52.668;6.860;2024-01-10T10:28:01;1.30;1.00
59857;DHT22;45733;52.668;6.860;2024-01-10T10:30:32;1.40;1.00
59857;DHT22;45733;52.668;6.860;2024-01-10T10:32:58;1.60;1.00
59857;DHT22;45733;52.668;6.860;2024-01-10T10:35:24;1.70;1.00
59857;DHT22;45733;52.668;6.860;2024-01-10T10:37:51;1.60;1.00
59857;DHT22;45733;52.668;6.860;2024-01-10T10:40:18;1.80;1.00
59857;DHT22;45733;52.668;6.860;2024-01-10T10:42:56;1.80;1.00
59857;DHT22;45733;52.668;6.860;2024-01-10T10:45:23;1.80;1.00
59857;DHT22;45733;52.668;6.860;2024-01-10T10:47:57;1.80;1.00
59857;DHT22;45733;52.668;6.860;2024-01-10T10:50:23;1.90;1.00
59857;DHT22;45733;52.668;6.860;2024-01-10T10:52:50;2.00;1.00
59857;DHT22;45733;52.668;6.860;2024-01-10T10:55:17;2.10;1.00
59857;DHT22;45733;52.668;6.860;2024-01-10T10:57:47;2.00;1.00
59857;DHT22;45733;52.668;6.860;2024-01-10T11:00:15;2.20;1.00
59857;DHT22;45733;52.668;6.860;2024-01-10T11:02:42;2.20;1.00
59857;DHT22;45733;52.668;6.860;2024-01-10T11:05:11;2.30;1.00
59857;DHT22;45733;52.668;6.860;2024-01-10T11:07:42;2.30;1.00
59857;DHT22;45733;52.668;6.860;2024-01-10T11:10:22;2.20;1.00
59857;DHT22;45733;52.668;6.860;2024-01-10T11:24:18;2.50;1.00
59857;DHT22;45733;52.668;6.860;2024-01-10T11:26:45;2.60;1.00
59857;DHT22;45733;52.668;6.860;2024-01-10T11:29:11;2.50;1.00
59857;DHT22;45733;52.668;6.860;2024-01-10T11:31:39;2.60;1.00
59857;DHT22;45733;52.668;6.860;2024-01-10T11:34:04;2.60;1.00
59857;DHT22;45733;52.668;6.860;2024-01-10T11:36:30;2.80;1.00
59857;DHT22;45733;52.668;6.860;2024-01-10T11:38:58;2.80;1.00
59857;DHT22;45733;52.668;6.860;2024-01-10T11:41:26;2.80;1.00
59857;DHT22;45733;52.668;6.860;2024-01-10T11:46:49;2.80;1.00
59857;DHT22;45733;52.668;6.860;2024-01-10T11:49:19;2.90;1.00
59857;DHT22;45733;52.668;6.860;2024-01-10T11:51:53;3.10;1.00
59857;DHT22;45733;52.668;6.860;2024-01-10T11:59:44;3.20;1.00
59857;DHT22;45733;52.668;6.860;2024-01-10T12:02:14;3.30;1.00
59857;DHT22;45733;52.668;6.860;2024-01-10T12:04:40;3.20;1.00
59857;DHT22;45733;52.668;6.860;2024-01-10T12:07:07;3.20;1.00
59857;DHT22;45733;52.668;6.860;2024-01-10T12:09:34;3.30;1.00
59857;DHT22;45733;52.668;6.860;2024-01-10T12:12:02;3.30;1.00
59857;DHT22;45733;52.668;6.860;2024-01-10T12:14:28;3.30;1.00
59857;DHT22;45733;52.668;6.860;2024-01-10T12:16:54;3.60;1.00
59857;DHT22;45733;52.668;6.860;2024-01-10T12:19:20;3.60;1.00
59857;DHT22;45733;52.668;6.860;2024-01-10T12:21:46;3.70;1.00
59857;DHT22;45733;52.668;6.860;2024-01-10T12:24:13;3.80;1.00
59857;DHT22;45733;52.668;6.860;2024-01-10T12:26:49;3.80;1.00
59857;DHT22;45733;52.668;6.860;2024-01-10T12:29:18;3.80;1.00
59857;DHT22;45733;52.668;6.860;2024-01-10T12:31:46;3.80;1.00
59857;DHT22;45733;52.668;6.860;2024-01-10T12:34:12;3.90;1.00
59857;DHT22;45733;52.668;6.860;2024-01-10T12:36:40;3.90;1.00
59857;DHT22;45733;52.668;6.860;2024-01-10T12:39:06;3.80;1.00
59857;DHT22;45733;52.668;6.860;2024-01-10T12:41:33;3.80;1.00
59857;DHT22;45733;52.668;6.860;2024-01-10T12:44:00;3.90;1.00
59857;DHT22;45733;52.668;6.860;2024-01-10T12:46:29;4.10;1.00
59857;DHT22;45733;52.668;6.860;2024-01-10T12:51:29;4.00;1.00
59857;DHT22;45733;52.668;6.860;2024-01-10T12:53:56;4.00;1.00
59857;DHT22;45733;52.668;6.860;2024-01-10T12:56:24;4.00;1.00
59857;DHT22;45733;52.668;6.860;2024-01-10T12:58:50;4.00;1.00
59857;DHT22;45733;52.668;6.860;2024-01-10T13:01:15;4.00;1.00
59857;DHT22;45733;52.668;6.860;2024-01-10T13:03:41;4.00;1.00
59857;DHT22;45733;52.668;6.860;2024-01-10T13:06:09;3.90;1.00
59857;DHT22;45733;52.668;6.860;2024-01-10T13:08:34;3.90;1.00
59857;DHT22;45733;52.668;6.860;2024-01-10T13:11:00;3.90;1.00
59857;DHT22;45733;52.668;6.860;2024-01-10T13:13:26;3.90;1.00
59857;DHT22;45733;52.668;6.860;2024-01-10T13:15:52;4.00;1.00
59857;DHT22;45733;52.668;6.860;2024-01-10T13:18:18;3.80;1.00
59857;DHT22;45733;52.668;6.860;2024-01-10T13:20:45;3.90;1.00
59857;DHT22;45733;52.668;6.860;2024-01-10T13:23:10;3.70;1.00
59857;DHT22;45733;52.668;6.860;2024-01-10T13:25:37;3.70;1.00
59857;DHT22;45733;52.668;6.860;2024-01-10T13:28:05;3.90;1.00
59857;DHT22;45733;52.668;6.860;2024-01-10T13:30:31;3.90;1.00
59857;DHT22;45733;52.668;6.860;2024-01-10T13:32:57;3.90;1.00
59857;DHT22;45733;52.668;6.860;2024-01-10T13:35:26;4.00;1.00
59857;DHT22;45733;52.668;6.860;2024-01-10T13:37:52;3.80;1.00
59857;DHT22;45733;52.668;6.860;2024-01-10T13:40:18;3.70;1.00
59857;DHT22;45733;52.668;6.860;2024-01-10T13:42:49;3.80;1.00
59857;DHT22;45733;52.668;6.860;2024-01-10T13:45:15;3.70;1.00
59857;DHT22;45733;52.668;6.860;2024-01-10T13:47:42;3.70;1.00
59857;DHT22;45733;52.668;6.860;2024-01-10T13:50:08;3.80;1.00
59857;DHT22;45733;52.668;6.860;2024-01-10T13:52:35;3.70;1.00
59857;DHT22;45733;52.668;6.860;2024-01-10T13:55:02;3.70;1.00
59857;DHT22;45733;52.668;6.860;2024-01-10T13:57:30;3.80;1.00
59857;DHT22;45733;52.668;6.860;2024-01-10T14:00:03;3.80;1.00
59857;DHT22;45733;52.668;6.860;2024-01-10T14:02:56;3.70;1.00
59857;DHT22;45733;52.668;6.860;2024-01-10T14:05:27;3.60;1.00
59857;DHT22;45733;52.668;6.860;2024-01-10T14:11:13;3.80;1.00
59857;DHT22;45733;52.668;6.860;2024-01-10T14:13:45;3.50;1.00
59857;DHT22;45733;52.668;6.860;2024-01-10T14:16:11;3.60;1.00
59857;DHT22;45733;52.668;6.860;2024-01-10T14:21:59;3.60;1.00
59857;DHT22;45733;52.668;6.860;2024-01-10T14:24:25;3.50;1.00
59857;DHT22;45733;52.668;6.860;2024-01-10T14:27:07;3.60;1.00
59857;DHT22;45733;52.668;6.860;2024-01-10T14:30:07;3.60;1.00
59857;DHT22;45733;52.668;6.860;2024-01-10T14:33:00;3.50;1.00
59857;DHT22;45733;52.668;6.860;2024-01-10T14:35:31;3.40;1.00
59857;DHT22;45733;52.668;6.860;2024-01-10T14:37:57;3.40;1.00
59857;DHT22;45733;52.668;6.860;2024-01-10T14:40:23;3.30;1.00
59857;DHT22;45733;52.668;6.860;2024-01-10T14:43:01;3.30;1.00
59857;DHT22;45733;52.668;6.860;2024-01-10T14:45:36;3.20;1.00
59857;DHT22;45733;52.668;6.860;2024-01-10T14:48:08;3.20;1.00
59857;DHT22;45733;52.668;6.860;2024-01-10T14:50:38;3.10;1.00
59857;DHT22;45733;52.668;6.860;2024-01-10T14:53:06;3.00;1.00
59857;DHT22;45733;52.668;6.860;2024-01-10T14:55:38;2.90;1.00
59857;DHT22;45733;52.668;6.860;2024-01-10T14:58:07;2.90;1.00
59857;DHT22;45733;52.668;6.860;2024-01-10T15:00:49;2.90;1.00
59857;DHT22;45733;52.668;6.860;2024-01-10T15:03:20;2.80;1.00
59857;DHT22;45733;52.668;6.860;2024-01-10T15:06:05;2.60;1.00
59857;DHT22;45733;52.668;6.860;2024-01-10T15:08:48;2.60;1.00
59857;DHT22;45733;52.668;6.860;2024-01-10T15:11:14;2.70;1.00
59857;DHT22;45733;52.668;6.860;2024-01-10T15:13:44;2.60;1.00
59857;DHT22;45733;52.668;6.860;2024-01-10T15:16:15;2.50;1.00
59857;DHT22;45733;52.668;6.860;2024-01-10T15:19:22;2.50;1.00
59857;DHT22;45733;52.668;6.860;2024-01-10T15:22:31;2.40;1.00
59857;DHT22;45733;52.668;6.860;2024-01-10T15:25:00;2.30;1.00
59857;DHT22;45733;52.668;6.860;2024-01-10T15:37:23;1.90;1.00
59857;DHT22;45733;52.668;6.860;2024-01-10T15:43:40;1.70;1.00
59857;DHT22;45733;52.668;6.860;2024-01-10T17:16:18;0.60;17.20
59857;DHT22;45733;52.668;6.860;2024-01-10T17:19:19;0.40;27.50
59857;DHT22;45733;52.668;6.860;2024-01-10T17:21:44;0.40;26.60
59857;DHT22;45733;52.668;6.860;2024-01-10T17:24:10;0.30;33.70
59857;DHT22;45733;52.668;6.860;2024-01-10T17:26:42;0.20;34.90
59857;DHT22;45733;52.668;6.860;2024-01-10T17:29:07;0.20;38.20
59857;DHT22;45733;52.668;6.860;2024-01-10T17:31:33;0.10;67.90
59857;DHT22;45733;52.668;6.860;2024-01-10T17:33:59;0.10;65.50
59857;DHT22;45733;52.668;6.860;2024-01-10T17:36:26;0.00;66.00
59857;DHT22;45733;52.668;6.860;2024-01-10T17:38:52;0.00;62.70
59857;DHT22;45733;52.668;6.860;2024-01-10T17:41:18;0.10;52.40
59857;DHT22;45733;52.668;6.860;2024-01-10T17:43:44;0.00;65.40
59857;DHT22;45733;52.668;6.860;2024-01-10T17:46:10;0.10;91.60
59857;DHT22;45733;52.668;6.860;2024-01-10T17:48:35;0.00;78.90
59857;DHT22;45733;52.668;6.860;2024-01-10T17:51:01;-0.10;99.90
59857;DHT22;45733;52.668;6.860;2024-01-10T17:53:27;-0.20;99.90
59857;DHT22;45733;52.668;6.860;2024-01-10T17:55:53;-0.20;99.90
59857;DHT22;45733;52.668;6.860;2024-01-10T17:58:21;-0.20;99.90
59857;DHT22;45733;52.668;6.860;2024-01-10T18:00:50;-0.30;99.90